sensor_id;sensor_type;location;lat;lon;timestamp;pressure;altitude;pressure_sealevel;temperature;humidity
64080;BME280;51042;49.696;10.808;2023-04-03T00:02:13;99328.47;;;2.51;75.62
64080;BME280;51042;49.696;10.808;2023-04-03T00:04:38;99332.03;;;2.55;78.82
64080;BME280;51042;49.696;10.808;2023-04-03T00:07:04;99329.31;;;2.55;79.09
64080;BME280;51042;49.696;10.808;2023-04-03T00:09:30;99337.09;;;2.56;78.42
64080;BME280;51042;49.696;10.808;2023-04-03T00:11:55;99333.19;;;2.54;75.20
64080;BME280;51042;49.696;10.808;2023-04-03T00:14:21;99335.88;;;2.54;76.10
64080;BME280;51042;49.696;10.808;2023-04-03T00:16:46;99328.53;;;2.54;74.97
64080;BME280;51042;49.696;10.808;2023-04-03T00:19:11;99333.97;;;2.54;74.54
64080;BME280;51042;49.696;10.808;2023-04-03T00:21:37;99327.31;;;2.52;77.86
64080;BME280;51042;49.696;10.808;2023-04-03T00:24:03;99330.31;;;2.46;76.10
64080;BME280;51042;49.696;10.808;2023-04-03T00:26:29;99326.78;;;2.42;77.94
64080;BME280;51042;49.696;10.808;2023-04-03T00:28:54;99334.41;;;2.37;76.75
64080;BME280;51042;49.696;10.808;2023-04-03T00:31:21;99330.06;;;2.32;77.88
64080;BME280;51042;49.696;10.808;2023-04-03T00:33:46;99329.53;;;2.27;77.48
64080;BME280;51042;49.696;10.808;2023-04-03T00:36:12;99326.78;;;2.23;77.71
64080;BME280;51042;49.696;10.808;2023-04-03T00:38:37;99329.03;;;2.21;77.82
64080;BME280;51042;49.696;10.808;2023-04-03T00:41:03;99325.94;;;2.19;78.23
64080;BME280;51042;49.696;10.808;2023-04-03T00:43:28;99333.69;;;2.21;79.16
64080;BME280;51042;49.696;10.808;2023-04-03T00:45:55;99325.50;;;2.17;79.18
64080;BME280;51042;49.696;10.808;2023-04-03T00:48:29;99328.53;;;2.16;80.53
64080;BME280;51042;49.696;10.808;2023-04-03T00:50:57;99336.59;;;2.12;80.91
64080;BME280;51042;49.696;10.808;2023-04-03T00:53:31;99328.06;;;2.10;82.30
64080;BME280;51042;49.696;10.808;2023-04-03T00:56:00;99332.69;;;2.10;79.92
64080;BME280;51042;49.696;10.808;2023-04-03T00:58:37;99330.34;;;2.08;80.99
64080;BME280;51042;49.696;10.808;2023-04-03T01:01:11;99325.97;;;2.03;80.95
64080;BME280;51042;49.696;10.808;2023-04-03T01:03:40;99337.97;;;2.02;82.92
64080;BME280;51042;49.696;10.808;2023-04-03T01:06:06;99327.84;;;1.99;82.19
64080;BME280;51042;49.696;10.808;2023-04-03T01:08:31;99336.69;;;1.96;81.00
64080;BME280;51042;49.696;10.808;2023-04-03T01:10:57;99333.53;;;1.94;82.71
64080;BME280;51042;49.696;10.808;2023-04-03T01:13:25;99330.72;;;1.91;81.97
64080;BME280;51042;49.696;10.808;2023-04-03T01:15:52;99328.75;;;1.88;82.94
64080;BME280;51042;49.696;10.808;2023-04-03T01:18:17;99326.31;;;1.83;82.98
64080;BME280;51042;49.696;10.808;2023-04-03T01:20:47;99337.16;;;1.83;84.47
64080;BME280;51042;49.696;10.808;2023-04-03T01:23:25;99326.31;;;1.83;84.10
64080;BME280;51042;49.696;10.808;2023-04-03T01:25:53;99337.22;;;1.86;84.00
64080;BME280;51042;49.696;10.808;2023-04-03T01:31:02;99338.84;;;1.91;86.73
64080;BME280;51042;49.696;10.808;2023-04-03T01:33:33;99333.81;;;1.89;86.14
64080;BME280;51042;49.696;10.808;2023-04-03T01:36:00;99338.44;;;1.89;85.76
64080;BME280;51042;49.696;10.808;2023-04-03T01:38:25;99342.63;;;1.86;85.40
64080;BME280;51042;49.696;10.808;2023-04-03T01:40:50;99344.53;;;1.86;85.94
64080;BME280;51042;49.696;10.808;2023-04-03T01:43:16;99345.44;;;1.90;87.35
64080;BME280;51042;49.696;10.808;2023-04-03T01:45:41;99342.72;;;1.90;86.54
64080;BME280;51042;49.696;10.808;2023-04-03T01:48:07;99341.22;;;1.92;88.12
64080;BME280;51042;49.696;10.808;2023-04-03T01:50:32;99348.91;;;1.90;86.28
64080;BME280;51042;49.696;10.808;2023-04-03T01:52:58;99346.56;;;1.89;87.80
64080;BME280;51042;49.696;10.808;2023-04-03T01:55:23;99344.19;;;1.87;86.63
64080;BME280;51042;49.696;10.808;2023-04-03T01:57:48;99341.94;;;1.89;88.18
64080;BME280;51042;49.696;10.808;2023-04-03T02:00:14;99345.84;;;1.92;88.28
64080;BME280;51042;49.696;10.808;2023-04-03T02:02:40;99351.97;;;1.89;89.60
64080;BME280;51042;49.696;10.808;2023-04-03T02:05:05;99345.31;;;1.86;89.53
64080;BME280;51042;49.696;10.808;2023-04-03T02:07:31;99349.25;;;1.89;88.41
64080;BME280;51042;49.696;10.808;2023-04-03T02:09:56;99343.84;;;1.89;90.21
64080;BME280;51042;49.696;10.808;2023-04-03T02:12:22;99342.34;;;1.91;90.84
64080;BME280;51042;49.696;10.808;2023-04-03T02:14:47;99342.00;;;1.93;92.41
64080;BME280;51042;49.696;10.808;2023-04-03T02:17:12;99343.13;;;1.92;91.68
64080;BME280;51042;49.696;10.808;2023-04-03T02:19:38;99341.56;;;1.91;91.13
64080;BME280;51042;49.696;10.808;2023-04-03T02:22:03;99338.94;;;1.94;93.41
64080;BME280;51042;49.696;10.808;2023-04-03T02:24:30;99339.28;;;1.93;91.88
64080;BME280;51042;49.696;10.808;2023-04-03T02:26:56;99340.06;;;1.93;90.93
64080;BME280;51042;49.696;10.808;2023-04-03T02:29:21;99340.06;;;1.93;92.18
64080;BME280;51042;49.696;10.808;2023-04-03T02:31:46;99333.88;;;1.93;91.79
64080;BME280;51042;49.696;10.808;2023-04-03T02:34:12;99345.94;;;1.95;93.17
64080;BME280;51042;49.696;10.808;2023-04-03T02:36:38;99337.38;;;1.93;92.90
64080;BME280;51042;49.696;10.808;2023-04-03T02:39:04;99335.00;;;1.92;91.98
64080;BME280;51042;49.696;10.808;2023-04-03T02:41:30;99341.66;;;1.94;93.72
64080;BME280;51042;49.696;10.808;2023-04-03T02:44:00;99341.66;;;1.94;93.80
64080;BME280;51042;49.696;10.808;2023-04-03T02:46:26;99337.81;;;1.95;94.23
64080;BME280;51042;49.696;10.808;2023-04-03T02:48:52;99347.50;;;1.96;96.50
64080;BME280;51042;49.696;10.808;2023-04-03T02:51:17;99346.34;;;1.97;95.24
64080;BME280;51042;49.696;10.808;2023-04-03T02:53:42;99349.50;;;1.99;96.14
64080;BME280;51042;49.696;10.808;2023-04-03T02:56:08;99354.56;;;2.01;96.24
64080;BME280;51042;49.696;10.808;2023-04-03T02:58:34;99352.25;;;2.03;95.71
64080;BME280;51042;49.696;10.808;2023-04-03T03:01:00;99343.38;;;2.02;96.13
64080;BME280;51042;49.696;10.808;2023-04-03T03:03:26;99351.13;;;2.04;96.44
64080;BME280;51042;49.696;10.808;2023-04-03T03:06:00;99354.28;;;2.06;95.13
64080;BME280;51042;49.696;10.808;2023-04-03T03:08:32;99353.13;;;2.07;96.50
64080;BME280;51042;49.696;10.808;2023-04-03T03:10:58;99353.53;;;2.09;96.18
64080;BME280;51042;49.696;10.808;2023-04-03T03:13:24;99343.16;;;2.11;97.02
64080;BME280;51042;49.696;10.808;2023-04-03T03:15:50;99342.38;;;2.11;97.16
64080;BME280;51042;49.696;10.808;2023-04-03T03:18:15;99347.00;;;2.10;97.37
64080;BME280;51042;49.696;10.808;2023-04-03T03:20:41;99346.31;;;2.13;98.65
64080;BME280;51042;49.696;10.808;2023-04-03T03:23:06;99343.94;;;2.12;96.84
64080;BME280;51042;49.696;10.808;2023-04-03T03:25:32;99352.06;;;2.12;97.41
64080;BME280;51042;49.696;10.808;2023-04-03T03:27:57;99338.88;;;2.10;99.03
64080;BME280;51042;49.696;10.808;2023-04-03T03:30:22;99349.78;;;2.14;98.27
64080;BME280;51042;49.696;10.808;2023-04-03T03:32:48;99349.00;;;2.13;99.74
64080;BME280;51042;49.696;10.808;2023-04-03T03:35:13;99345.53;;;2.13;99.13
64080;BME280;51042;49.696;10.808;2023-04-03T03:37:38;99341.25;;;2.12;99.73
64080;BME280;51042;49.696;10.808;2023-04-03T03:40:04;99335.81;;;2.12;100.00
64080;BME280;51042;49.696;10.808;2023-04-03T03:42:30;99336.59;;;2.12;100.00
64080;BME280;51042;49.696;10.808;2023-04-03T03:44:55;99340.78;;;2.10;100.00
64080;BME280;51042;49.696;10.808;2023-04-03T03:47:21;99342.72;;;2.09;100.00
64080;BME280;51042;49.696;10.808;2023-04-03T03:49:46;99337.31;;;2.09;100.00
64080;BME280;51042;49.696;10.808;2023-04-03T03:52:11;99338.47;;;2.08;100.00
64080;BME280;51042;49.696;10.808;2023-04-03T03:54:37;99339.59;;;2.07;100.00
64080;BME280;51042;49.696;10.808;2023-04-03T03:57:03;99346.94;;;2.07;100.00
64080;BME280;51042;49.696;10.808;2023-04-03T03:59:28;99335.25;;;2.02;100.00
64080;BME280;51042;49.696;10.808;2023-04-03T04:01:53;99337.53;;;2.00;100.00
64080;BME280;51042;49.696;10.808;2023-04-03T04:04:19;99339.38;;;1.96;100.00
64080;BME280;51042;49.696;10.808;2023-04-03T04:06:45;99341.56;;;1.91;100.00
64080;BME280;51042;49.696;10.808;2023-04-03T04:09:10;99335.91;;;1.80;100.00
64080;BME280;51042;49.696;10.808;2023-04-03T04:11:36;99345.72;;;1.69;100.00
64080;BME280;51042;49.696;10.808;2023-04-03T04:14:01;99338.94;;;1.59;100.00
64080;BME280;51042;49.696;10.808;2023-04-03T04:16:26;99344.53;;;1.51;100.00
64080;BME280;51042;49.696;10.808;2023-04-03T04:18:52;99337.03;;;1.44;100.00
64080;BME280;51042;49.696;10.808;2023-04-03T04:21:17;99340.81;;;1.40;100.00
64080;BME280;51042;49.696;10.808;2023-04-03T04:23:42;99346.13;;;1.36;100.00
64080;BME280;51042;49.696;10.808;2023-04-03T04:26:08;99334.69;;;1.27;100.00
64080;BME280;51042;49.696;10.808;2023-04-03T04:28:33;99337.50;;;1.15;100.00
64080;BME280;51042;49.696;10.808;2023-04-03T04:30:58;99340.13;;;1.11;100.00
64080;BME280;51042;49.696;10.808;2023-04-03T04:33:23;99346.59;;;1.07;100.00
64080;BME280;51042;49.696;10.808;2023-04-03T04:35:49;99347.19;;;1.00;100.00
64080;BME280;51042;49.696;10.808;2023-04-03T04:38:15;99351.03;;;0.99;100.00
64080;BME280;51042;49.696;10.808;2023-04-03T04:40:40;99353.97;;;0.94;100.00
64080;BME280;51042;49.696;10.808;2023-04-03T04:43:06;99359.72;;;0.93;100.00
64080;BME280;51042;49.696;10.808;2023-04-03T04:45:31;99345.34;;;0.89;100.00
64080;BME280;51042;49.696;10.808;2023-04-03T04:47:57;99349.53;;;0.86;100.00
64080;BME280;51042;49.696;10.808;2023-04-03T04:50:22;99359.88;;;0.84;100.00
64080;BME280;51042;49.696;10.808;2023-04-03T04:52:47;99357.88;;;0.81;100.00
64080;BME280;51042;49.696;10.808;2023-04-03T04:55:13;99362.50;;;0.80;100.00
64080;BME280;51042;49.696;10.808;2023-04-03T04:57:38;99359.25;;;0.75;100.00
64080;BME280;51042;49.696;10.808;2023-04-03T05:00:04;99361.50;;;0.73;100.00
64080;BME280;51042;49.696;10.808;2023-04-03T05:02:29;99367.81;;;0.77;100.00
64080;BME280;51042;49.696;10.808;2023-04-03T05:04:55;99362.06;;;0.78;100.00
64080;BME280;51042;49.696;10.808;2023-04-03T05:07:21;99360.91;;;0.79;100.00
64080;BME280;51042;49.696;10.808;2023-04-03T05:09:46;99363.28;;;0.81;100.00
64080;BME280;51042;49.696;10.808;2023-04-03T05:12:12;99357.53;;;0.82;100.00
64080;BME280;51042;49.696;10.808;2023-04-03T05:14:37;99366.06;;;0.85;100.00
64080;BME280;51042;49.696;10.808;2023-04-03T05:17:03;99369.22;;;0.87;100.00
64080;BME280;51042;49.696;10.808;2023-04-03T05:19:28;99367.69;;;1.01;100.00
64080;BME280;51042;49.696;10.808;2023-04-03T05:21:53;99368.56;;;1.37;100.00
64080;BME280;51042;49.696;10.808;2023-04-03T05:24:19;99373.38;;;1.78;99.98
64080;BME280;51042;49.696;10.808;2023-04-03T05:26:45;99371.16;;;2.57;93.27
64080;BME280;51042;49.696;10.808;2023-04-03T05:29:10;99378.94;;;2.39;91.22
64080;BME280;51042;49.696;10.808;2023-04-03T05:31:36;99379.53;;;1.94;94.10
64080;BME280;51042;49.696;10.808;2023-04-03T05:34:02;99377.56;;;1.76;95.66
64080;BME280;51042;49.696;10.808;2023-04-03T05:36:27;99381.09;;;2.30;96.29
64080;BME280;51042;49.696;10.808;2023-04-03T05:38:53;99383.38;;;2.47;90.04
64080;BME280;51042;49.696;10.808;2023-04-03T05:41:21;99387.34;;;1.80;92.70
64080;BME280;51042;49.696;10.808;2023-04-03T05:43:47;99389.66;;;1.47;97.07
64080;BME280;51042;49.696;10.808;2023-04-03T05:46:13;99382.41;;;1.35;98.56
64080;BME280;51042;49.696;10.808;2023-04-03T05:48:40;99392.34;;;1.31;99.77
64080;BME280;51042;49.696;10.808;2023-04-03T05:51:06;99391.59;;;1.31;100.00
64080;BME280;51042;49.696;10.808;2023-04-03T05:53:33;99392.44;;;1.35;100.00
64080;BME280;51042;49.696;10.808;2023-04-03T05:56:04;99391.72;;;1.38;100.00
64080;BME280;51042;49.696;10.808;2023-04-03T05:58:29;99394.53;;;1.41;99.97
64080;BME280;51042;49.696;10.808;2023-04-03T06:00:55;99396.53;;;1.44;97.79
64080;BME280;51042;49.696;10.808;2023-04-03T06:03:20;99404.91;;;1.39;98.20
64080;BME280;51042;49.696;10.808;2023-04-03T06:05:46;99403.97;;;1.47;99.49
64080;BME280;51042;49.696;10.808;2023-04-03T06:08:12;99409.97;;;1.56;97.56
64080;BME280;51042;49.696;10.808;2023-04-03T06:10:37;99403.94;;;1.63;97.25
64080;BME280;51042;49.696;10.808;2023-04-03T06:13:03;99401.75;;;1.69;95.46
64080;BME280;51042;49.696;10.808;2023-04-03T06:15:28;99405.84;;;1.78;95.33
64080;BME280;51042;49.696;10.808;2023-04-03T06:17:53;99417.88;;;1.81;93.27
64080;BME280;51042;49.696;10.808;2023-04-03T06:20:19;99409.59;;;1.89;91.92
64080;BME280;51042;49.696;10.808;2023-04-03T06:22:45;99418.09;;;2.07;91.07
64080;BME280;51042;49.696;10.808;2023-04-03T06:25:10;99417.38;;;2.10;90.36
64080;BME280;51042;49.696;10.808;2023-04-03T06:27:37;99414.06;;;2.17;90.75
64080;BME280;51042;49.696;10.808;2023-04-03T06:30:02;99422.00;;;2.25;88.80
64080;BME280;51042;49.696;10.808;2023-04-03T06:32:28;99431.75;;;2.30;89.06
64080;BME280;51042;49.696;10.808;2023-04-03T06:34:54;99426.69;;;2.28;89.53
64080;BME280;51042;49.696;10.808;2023-04-03T06:37:21;99426.00;;;2.31;90.38
64080;BME280;51042;49.696;10.808;2023-04-03T06:39:47;99423.06;;;2.40;88.93
64080;BME280;51042;49.696;10.808;2023-04-03T06:42:13;99425.28;;;2.54;87.12
64080;BME280;51042;49.696;10.808;2023-04-03T06:44:38;99434.25;;;2.58;87.81
64080;BME280;51042;49.696;10.808;2023-04-03T06:47:04;99421.44;;;2.74;86.55
64080;BME280;51042;49.696;10.808;2023-04-03T06:49:30;99426.69;;;2.86;84.51
64080;BME280;51042;49.696;10.808;2023-04-03T06:51:56;99429.34;;;2.82;83.40
64080;BME280;51042;49.696;10.808;2023-04-03T06:54:21;99433.81;;;2.94;83.16
64080;BME280;51042;49.696;10.808;2023-04-03T06:56:47;99433.97;;;3.01;82.17
64080;BME280;51042;49.696;10.808;2023-04-03T06:59:13;99430.31;;;3.13;81.65
64080;BME280;51042;49.696;10.808;2023-04-03T07:01:39;99443.22;;;3.19;80.27
64080;BME280;51042;49.696;10.808;2023-04-03T07:04:05;99445.09;;;3.61;77.92
64080;BME280;51042;49.696;10.808;2023-04-03T07:06:31;99445.56;;;3.44;77.00
64080;BME280;51042;49.696;10.808;2023-04-03T07:08:58;99444.63;;;3.55;77.28
64080;BME280;51042;49.696;10.808;2023-04-03T07:11:24;99442.44;;;3.64;75.52
64080;BME280;51042;49.696;10.808;2023-04-03T07:13:50;99456.94;;;3.98;75.73
64080;BME280;51042;49.696;10.808;2023-04-03T07:16:16;99459.59;;;3.95;74.31
64080;BME280;51042;49.696;10.808;2023-04-03T07:18:41;99464.69;;;3.74;75.07
64080;BME280;51042;49.696;10.808;2023-04-03T07:21:06;99469.66;;;3.68;74.00
64080;BME280;51042;49.696;10.808;2023-04-03T07:23:32;99476.72;;;3.76;73.80
64080;BME280;51042;49.696;10.808;2023-04-03T07:25:58;99476.44;;;3.58;73.10
64080;BME280;51042;49.696;10.808;2023-04-03T07:28:24;99479.72;;;3.67;74.60
64080;BME280;51042;49.696;10.808;2023-04-03T07:30:50;99477.16;;;3.78;74.00
64080;BME280;51042;49.696;10.808;2023-04-03T07:33:18;99472.97;;;3.81;73.58
64080;BME280;51042;49.696;10.808;2023-04-03T07:35:44;99485.81;;;3.61;73.76
64080;BME280;51042;49.696;10.808;2023-04-03T07:38:10;99487.72;;;3.60;73.54
64080;BME280;51042;49.696;10.808;2023-04-03T07:40:36;99481.81;;;3.78;74.27
64080;BME280;51042;49.696;10.808;2023-04-03T07:43:03;99482.72;;;4.11;71.83
64080;BME280;51042;49.696;10.808;2023-04-03T07:45:30;99491.88;;;4.26;71.20
64080;BME280;51042;49.696;10.808;2023-04-03T07:47:56;99485.25;;;3.97;70.66
64080;BME280;51042;49.696;10.808;2023-04-03T07:50:22;99484.69;;;3.88;72.49
64080;BME280;51042;49.696;10.808;2023-04-03T07:52:48;99485.16;;;3.94;71.38
64080;BME280;51042;49.696;10.808;2023-04-03T07:55:15;99486.50;;;4.03;71.02
64080;BME280;51042;49.696;10.808;2023-04-03T07:57:41;99486.50;;;4.03;69.78
64080;BME280;51042;49.696;10.808;2023-04-03T08:00:07;99482.91;;;4.22;70.17
64080;BME280;51042;49.696;10.808;2023-04-03T08:02:33;99498.81;;;4.50;67.15
64080;BME280;51042;49.696;10.808;2023-04-03T08:04:59;99495.06;;;4.58;66.09
64080;BME280;51042;49.696;10.808;2023-04-03T08:07:24;99489.78;;;4.72;66.32
64080;BME280;51042;49.696;10.808;2023-04-03T08:09:50;99491.09;;;4.82;66.08
64080;BME280;51042;49.696;10.808;2023-04-03T08:12:15;99492.06;;;4.67;65.84
64080;BME280;51042;49.696;10.808;2023-04-03T08:14:41;99493.59;;;4.64;64.39
64080;BME280;51042;49.696;10.808;2023-04-03T08:17:06;99492.34;;;4.32;64.10
64080;BME280;51042;49.696;10.808;2023-04-03T08:19:34;99496.94;;;4.54;64.44
64080;BME280;51042;49.696;10.808;2023-04-03T08:22:00;99487.16;;;4.49;65.05
64080;BME280;51042;49.696;10.808;2023-04-03T08:24:28;99497.81;;;4.62;64.20
64080;BME280;51042;49.696;10.808;2023-04-03T08:26:54;99499.41;;;4.96;62.77
64080;BME280;51042;49.696;10.808;2023-04-03T08:29:20;99493.38;;;5.10;62.10
64080;BME280;51042;49.696;10.808;2023-04-03T08:31:46;99493.66;;;5.34;62.04
64080;BME280;51042;49.696;10.808;2023-04-03T08:34:12;99501.13;;;5.45;61.01
64080;BME280;51042;49.696;10.808;2023-04-03T08:36:38;99505.69;;;5.74;60.23
64080;BME280;51042;49.696;10.808;2023-04-03T08:39:03;99500.75;;;5.46;59.21
64080;BME280;51042;49.696;10.808;2023-04-03T08:49:59;99517.03;;;5.39;60.07
64080;BME280;51042;49.696;10.808;2023-04-03T08:55:20;99503.59;;;5.97;57.85
64080;BME280;51042;49.696;10.808;2023-04-03T08:57:51;99513.16;;;6.25;56.92
64080;BME280;51042;49.696;10.808;2023-04-03T09:00:25;99524.66;;;6.04;56.52
64080;BME280;51042;49.696;10.808;2023-04-03T09:02:55;99518.75;;;5.95;55.79
64080;BME280;51042;49.696;10.808;2023-04-03T09:05:35;99509.31;;;5.45;55.51
64080;BME280;51042;49.696;10.808;2023-04-03T09:08:26;99521.56;;;5.28;54.87
64080;BME280;51042;49.696;10.808;2023-04-03T09:11:00;99522.38;;;5.32;54.60
64080;BME280;51042;49.696;10.808;2023-04-03T09:13:58;99525.28;;;5.50;54.93
64080;BME280;51042;49.696;10.808;2023-04-03T09:16:31;99530.03;;;5.97;53.05
64080;BME280;51042;49.696;10.808;2023-04-03T09:21:57;99530.91;;;5.67;53.73
64080;BME280;51042;49.696;10.808;2023-04-03T09:24:36;99528.81;;;5.91;52.42
64080;BME280;51042;49.696;10.808;2023-04-03T09:27:06;99528.31;;;5.08;52.98
64080;BME280;51042;49.696;10.808;2023-04-03T09:29:35;99538.88;;;5.13;54.76
64080;BME280;51042;49.696;10.808;2023-04-03T09:35:25;99532.19;;;5.77;50.96
64080;BME280;51042;49.696;10.808;2023-04-03T09:37:50;99522.81;;;6.15;49.94
64080;BME280;51042;49.696;10.808;2023-04-03T09:42:52;99524.94;;;5.55;49.07
64080;BME280;51042;49.696;10.808;2023-04-03T09:45:23;99517.44;;;5.41;50.42
64080;BME280;51042;49.696;10.808;2023-04-03T09:48:12;99531.44;;;5.43;52.84
64080;BME280;51042;49.696;10.808;2023-04-03T09:58:41;99517.78;;;5.77;48.86
64080;BME280;51042;49.696;10.808;2023-04-03T10:06:41;99515.78;;;5.33;48.10
64080;BME280;51042;49.696;10.808;2023-04-03T10:09:16;99518.34;;;5.19;49.22
64080;BME280;51042;49.696;10.808;2023-04-03T10:11:57;99516.25;;;5.79;50.03
64080;BME280;51042;49.696;10.808;2023-04-03T10:14:29;99505.41;;;5.42;48.17
64080;BME280;51042;49.696;10.808;2023-04-03T10:17:03;99510.34;;;5.33;47.25
64080;BME280;51042;49.696;10.808;2023-04-03T10:22:20;99504.56;;;6.19;46.58
64080;BME280;51042;49.696;10.808;2023-04-03T10:27:51;99509.38;;;5.92;45.28
64080;BME280;51042;49.696;10.808;2023-04-03T10:30:26;99502.75;;;6.41;45.21
64080;BME280;51042;49.696;10.808;2023-04-03T10:38:33;99499.22;;;7.13;43.99
64080;BME280;51042;49.696;10.808;2023-04-03T10:46:34;99491.13;;;5.96;44.50
64080;BME280;51042;49.696;10.808;2023-04-03T10:52:17;99485.69;;;6.54;43.35
64080;BME280;51042;49.696;10.808;2023-04-03T10:57:39;99491.78;;;5.86;44.57
64080;BME280;51042;49.696;10.808;2023-04-03T11:00:06;99488.63;;;5.77;43.97
64080;BME280;51042;49.696;10.808;2023-04-03T11:02:48;99478.31;;;6.55;42.46
64080;BME280;51042;49.696;10.808;2023-04-03T11:08:03;99478.19;;;7.27;43.24
64080;BME280;51042;49.696;10.808;2023-04-03T11:10:37;99478.97;;;6.38;42.31
64080;BME280;51042;49.696;10.808;2023-04-03T11:15:40;99469.31;;;6.51;45.87
64080;BME280;51042;49.696;10.808;2023-04-03T11:18:09;99472.94;;;6.76;43.29
64080;BME280;51042;49.696;10.808;2023-04-03T11:20:38;99462.03;;;6.80;42.60
64080;BME280;51042;49.696;10.808;2023-04-03T11:25:40;99466.94;;;6.42;44.54
64080;BME280;51042;49.696;10.808;2023-04-03T11:28:14;99466.06;;;5.80;45.22
64080;BME280;51042;49.696;10.808;2023-04-03T11:30:47;99464.09;;;6.25;45.02
64080;BME280;51042;49.696;10.808;2023-04-03T11:33:31;99464.22;;;6.49;43.32
64080;BME280;51042;49.696;10.808;2023-04-03T11:36:44;99460.63;;;6.31;44.51
64080;BME280;51042;49.696;10.808;2023-04-03T11:38:49;99461.41;;;7.29;43.87
64080;BME280;51042;49.696;10.808;2023-04-03T11:41:24;99453.66;;;7.45;42.90
64080;BME280;51042;49.696;10.808;2023-04-03T11:46:55;99452.09;;;8.26;41.99
64080;BME280;51042;49.696;10.808;2023-04-03T12:05:51;99433.28;;;7.00;43.06
64080;BME280;51042;49.696;10.808;2023-04-03T12:16:20;99438.44;;;8.33;41.67
64080;BME280;51042;49.696;10.808;2023-04-03T12:21:21;99417.25;;;8.62;42.99
64080;BME280;51042;49.696;10.808;2023-04-03T12:24:04;99422.00;;;8.36;42.52
64080;BME280;51042;49.696;10.808;2023-04-03T12:26:31;99422.34;;;7.04;44.01
64080;BME280;51042;49.696;10.808;2023-04-03T12:29:14;99420.13;;;7.73;43.60
64080;BME280;51042;49.696;10.808;2023-04-03T12:31:52;99413.06;;;8.04;43.02
64080;BME280;51042;49.696;10.808;2023-04-03T12:37:28;99407.97;;;7.17;43.29
64080;BME280;51042;49.696;10.808;2023-04-03T12:45:29;99395.31;;;8.72;40.78
64080;BME280;51042;49.696;10.808;2023-04-03T12:48:22;99389.50;;;8.59;40.23
64080;BME280;51042;49.696;10.808;2023-04-03T12:50:51;99387.16;;;8.62;41.22
64080;BME280;51042;49.696;10.808;2023-04-03T12:53:24;99386.38;;;8.61;41.74
64080;BME280;51042;49.696;10.808;2023-04-03T12:55:55;99386.72;;;8.67;40.73
64080;BME280;51042;49.696;10.808;2023-04-03T12:58:22;99378.38;;;7.62;42.28
64080;BME280;51042;49.696;10.808;2023-04-03T13:01:03;99378.72;;;7.21;41.91
64080;BME280;51042;49.696;10.808;2023-04-03T13:03:34;99384.59;;;7.73;43.72
64080;BME280;51042;49.696;10.808;2023-04-03T13:06:04;99389.59;;;8.38;43.96
64080;BME280;51042;49.696;10.808;2023-04-03T13:08:30;99383.44;;;8.96;42.12
64080;BME280;51042;49.696;10.808;2023-04-03T13:11:03;99379.81;;;9.17;39.34
64080;BME280;51042;49.696;10.808;2023-04-03T13:13:33;99376.63;;;9.26;38.38
64080;BME280;51042;49.696;10.808;2023-04-03T13:15:58;99375.19;;;8.02;40.81
64080;BME280;51042;49.696;10.808;2023-04-03T13:18:28;99390.47;;;7.32;42.92
64080;BME280;51042;49.696;10.808;2023-04-03T13:20:56;99388.50;;;7.47;40.96
64080;BME280;51042;49.696;10.808;2023-04-03T13:23:34;99388.06;;;8.05;40.73
64080;BME280;51042;49.696;10.808;2023-04-03T13:26:02;99376.00;;;7.82;40.96
64080;BME280;51042;49.696;10.808;2023-04-03T13:28:30;99370.94;;;7.73;41.36
64080;BME280;51042;49.696;10.808;2023-04-03T13:34:02;99375.53;;;8.22;41.67
64080;BME280;51042;49.696;10.808;2023-04-03T13:36:36;99371.66;;;6.85;41.78
64080;BME280;51042;49.696;10.808;2023-04-03T13:41:41;99374.81;;;7.05;41.72
64080;BME280;51042;49.696;10.808;2023-04-03T13:46:48;99368.59;;;7.64;42.13
64080;BME280;51042;49.696;10.808;2023-04-03T13:54:47;99374.47;;;7.31;39.67
64080;BME280;51042;49.696;10.808;2023-04-03T13:57:16;99358.44;;;7.79;41.48
64080;BME280;51042;49.696;10.808;2023-04-03T13:59:42;99354.72;;;8.60;40.16
64080;BME280;51042;49.696;10.808;2023-04-03T14:07:01;99349.84;;;7.80;40.42
64080;BME280;51042;49.696;10.808;2023-04-03T14:09:27;99358.41;;;6.97;41.59
64080;BME280;51042;49.696;10.808;2023-04-03T14:11:53;99348.66;;;6.93;44.61
64080;BME280;51042;49.696;10.808;2023-04-03T14:14:26;99349.09;;;7.48;40.94
64080;BME280;51042;49.696;10.808;2023-04-03T14:16:56;99349.84;;;7.77;41.41
64080;BME280;51042;49.696;10.808;2023-04-03T14:19:25;99357.25;;;7.98;41.89
64080;BME280;51042;49.696;10.808;2023-04-03T14:21:54;99352.44;;;8.41;39.80
64080;BME280;51042;49.696;10.808;2023-04-03T14:24:20;99356.31;;;8.50;39.56
64080;BME280;51042;49.696;10.808;2023-04-03T14:26:47;99356.38;;;8.40;39.42
64080;BME280;51042;49.696;10.808;2023-04-03T14:29:14;99338.84;;;8.05;38.32
64080;BME280;51042;49.696;10.808;2023-04-03T14:31:40;99356.09;;;7.81;39.13
64080;BME280;51042;49.696;10.808;2023-04-03T14:34:07;99349.50;;;7.68;39.97
64080;BME280;51042;49.696;10.808;2023-04-03T14:36:32;99346.00;;;7.43;40.97
64080;BME280;51042;49.696;10.808;2023-04-03T14:38:58;99347.53;;;7.65;40.65
64080;BME280;51042;49.696;10.808;2023-04-03T14:41:24;99351.03;;;7.33;40.71
64080;BME280;51042;49.696;10.808;2023-04-03T14:43:51;99341.25;;;7.75;42.97
64080;BME280;51042;49.696;10.808;2023-04-03T14:46:28;99350.16;;;8.32;42.08
64080;BME280;51042;49.696;10.808;2023-04-03T14:48:56;99341.88;;;8.46;40.71
64080;BME280;51042;49.696;10.808;2023-04-03T14:51:22;99340.75;;;8.26;40.59
64080;BME280;51042;49.696;10.808;2023-04-03T14:53:48;99345.16;;;7.92;42.22
64080;BME280;51042;49.696;10.808;2023-04-03T14:56:16;99342.81;;;7.87;42.58
64080;BME280;51042;49.696;10.808;2023-04-03T14:58:44;99337.28;;;8.22;41.15
64080;BME280;51042;49.696;10.808;2023-04-03T15:01:10;99349.06;;;7.91;41.12
64080;BME280;51042;49.696;10.808;2023-04-03T15:03:37;99332.69;;;7.09;40.98
64080;BME280;51042;49.696;10.808;2023-04-03T15:06:02;99341.22;;;6.69;41.40